sensor_id;sensor_type;location;lat;lon;timestamp;P1;durP1;ratioP1;P2;durP2;ratioP2
12840;SDS011;6487;48.626;12.486;2023-05-10T00:01:51;5.10;;;4.43;;
12840;SDS011;6487;48.626;12.486;2023-05-10T00:04:20;5.70;;;4.10;;
12840;SDS011;6487;48.626;12.486;2023-05-10T00:06:50;4.97;;;4.50;;
12840;SDS011;6487;48.626;12.486;2023-05-10T00:09:18;5.33;;;4.83;;
12840;SDS011;6487;48.626;12.486;2023-05-10T00:11:47;5.20;;;4.70;;
12840;SDS011;6487;48.626;12.486;2023-05-10T00:14:15;5.03;;;4.57;;
12840;SDS011;6487;48.626;12.486;2023-05-10T00:16:43;5.60;;;4.47;;
12840;SDS011;6487;48.626;12.486;2023-05-10T00:19:12;5.00;;;4.60;;
12840;SDS011;6487;48.626;12.486;2023-05-10T00:21:41;5.40;;;4.80;;
12840;SDS011;6487;48.626;12.486;2023-05-10T00:24:10;5.20;;;4.70;;
12840;SDS011;6487;48.626;12.486;2023-05-10T00:26:39;5.10;;;4.70;;
12840;SDS011;6487;48.626;12.486;2023-05-10T00:29:10;5.20;;;4.80;;
12840;SDS011;6487;48.626;12.486;2023-05-10T00:31:38;6.93;;;4.90;;
12840;SDS011;6487;48.626;12.486;2023-05-10T00:34:06;5.30;;;4.80;;
12840;SDS011;6487;48.626;12.486;2023-05-10T00:36:35;5.00;;;4.60;;
12840;SDS011;6487;48.626;12.486;2023-05-10T00:39:03;5.00;;;4.60;;
12840;SDS011;6487;48.626;12.486;2023-05-10T00:41:33;5.07;;;4.57;;
12840;SDS011;6487;48.626;12.486;2023-05-10T00:44:02;5.40;;;5.00;;
12840;SDS011;6487;48.626;12.486;2023-05-10T00:46:30;4.73;;;4.33;;
12840;SDS011;6487;48.626;12.486;2023-05-10T00:48:59;5.37;;;4.47;;
12840;SDS011;6487;48.626;12.486;2023-05-10T00:51:27;4.87;;;4.40;;
12840;SDS011;6487;48.626;12.486;2023-05-10T00:53:57;5.73;;;4.90;;
12840;SDS011;6487;48.626;12.486;2023-05-10T00:56:26;5.70;;;4.37;;
12840;SDS011;6487;48.626;12.486;2023-05-10T00:58:57;4.80;;;4.33;;
12840;SDS011;6487;48.626;12.486;2023-05-10T01:01:25;5.33;;;4.33;;
12840;SDS011;6487;48.626;12.486;2023-05-10T01:03:54;7.30;;;4.50;;
12840;SDS011;6487;48.626;12.486;2023-05-10T01:06:23;5.50;;;5.00;;
12840;SDS011;6487;48.626;12.486;2023-05-10T01:08:51;5.43;;;5.00;;
12840;SDS011;6487;48.626;12.486;2023-05-10T01:11:20;4.87;;;4.47;;
12840;SDS011;6487;48.626;12.486;2023-05-10T01:13:56;5.20;;;4.80;;
12840;SDS011;6487;48.626;12.486;2023-05-10T01:16:27;4.70;;;4.30;;
12840;SDS011;6487;48.626;12.486;2023-05-10T01:19:00;5.17;;;4.73;;
12840;SDS011;6487;48.626;12.486;2023-05-10T01:21:30;4.67;;;4.23;;
12840;SDS011;6487;48.626;12.486;2023-05-10T01:24:23;6.53;;;5.13;;
12840;SDS011;6487;48.626;12.486;2023-05-10T01:31:06;7.20;;;5.10;;
12840;SDS011;6487;48.626;12.486;2023-05-10T01:33:48;5.53;;;4.93;;
12840;SDS011;6487;48.626;12.486;2023-05-10T01:36:26;5.67;;;5.17;;
12840;SDS011;6487;48.626;12.486;2023-05-10T01:39:04;5.67;;;4.93;;
12840;SDS011;6487;48.626;12.486;2023-05-10T01:41:39;5.37;;;4.83;;
12840;SDS011;6487;48.626;12.486;2023-05-10T01:44:22;5.47;;;5.07;;
12840;SDS011;6487;48.626;12.486;2023-05-10T01:47:10;5.20;;;4.80;;
12840;SDS011;6487;48.626;12.486;2023-05-10T01:49:44;5.63;;;5.03;;
12840;SDS011;6487;48.626;12.486;2023-05-10T01:52:17;5.83;;;5.33;;
12840;SDS011;6487;48.626;12.486;2023-05-10T01:54:53;5.33;;;4.83;;
12840;SDS011;6487;48.626;12.486;2023-05-10T01:57:26;7.30;;;5.43;;
12840;SDS011;6487;48.626;12.486;2023-05-10T02:00:01;5.53;;;4.90;;
12840;SDS011;6487;48.626;12.486;2023-05-10T02:02:31;5.80;;;5.30;;
12840;SDS011;6487;48.626;12.486;2023-05-10T02:05:06;5.97;;;5.37;;
12840;SDS011;6487;48.626;12.486;2023-05-10T02:07:38;7.07;;;5.17;;
12840;SDS011;6487;48.626;12.486;2023-05-10T02:10:08;5.60;;;5.10;;
12840;SDS011;6487;48.626;12.486;2023-05-10T02:12:39;6.60;;;5.83;;
12840;SDS011;6487;48.626;12.486;2023-05-10T02:15:11;6.37;;;5.80;;
12840;SDS011;6487;48.626;12.486;2023-05-10T02:17:48;6.73;;;6.13;;
12840;SDS011;6487;48.626;12.486;2023-05-10T02:20:18;7.80;;;6.63;;
12840;SDS011;6487;48.626;12.486;2023-05-10T02:22:48;6.13;;;5.57;;
12840;SDS011;6487;48.626;12.486;2023-05-10T02:25:19;6.70;;;5.77;;
12840;SDS011;6487;48.626;12.486;2023-05-10T02:27:51;6.73;;;5.67;;
12840;SDS011;6487;48.626;12.486;2023-05-10T02:30:23;6.87;;;6.27;;
12840;SDS011;6487;48.626;12.486;2023-05-10T02:32:52;7.23;;;6.57;;
12840;SDS011;6487;48.626;12.486;2023-05-10T02:35:22;7.23;;;6.53;;
12840;SDS011;6487;48.626;12.486;2023-05-10T02:37:56;7.33;;;6.40;;
12840;SDS011;6487;48.626;12.486;2023-05-10T02:40:26;6.87;;;6.27;;
12840;SDS011;6487;48.626;12.486;2023-05-10T02:42:56;7.30;;;6.60;;
12840;SDS011;6487;48.626;12.486;2023-05-10T02:45:26;7.30;;;6.47;;
12840;SDS011;6487;48.626;12.486;2023-05-10T02:47:58;6.67;;;6.17;;
12840;SDS011;6487;48.626;12.486;2023-05-10T02:50:28;6.97;;;6.37;;
12840;SDS011;6487;48.626;12.486;2023-05-10T02:53:00;7.23;;;6.43;;
12840;SDS011;6487;48.626;12.486;2023-05-10T02:55:32;6.87;;;6.27;;
12840;SDS011;6487;48.626;12.486;2023-05-10T02:58:08;8.37;;;6.00;;
12840;SDS011;6487;48.626;12.486;2023-05-10T03:00:39;7.37;;;6.77;;
12840;SDS011;6487;48.626;12.486;2023-05-10T03:03:07;7.23;;;6.63;;
12840;SDS011;6487;48.626;12.486;2023-05-10T03:05:36;7.30;;;6.60;;
12840;SDS011;6487;48.626;12.486;2023-05-10T03:08:08;7.77;;;6.03;;
12840;SDS011;6487;48.626;12.486;2023-05-10T03:10:37;7.60;;;6.80;;
12840;SDS011;6487;48.626;12.486;2023-05-10T03:13:16;7.30;;;6.57;;
12840;SDS011;6487;48.626;12.486;2023-05-10T03:15:58;7.53;;;6.27;;
12840;SDS011;6487;48.626;12.486;2023-05-10T03:18:37;7.27;;;6.70;;
12840;SDS011;6487;48.626;12.486;2023-05-10T03:21:12;7.57;;;6.87;;
12840;SDS011;6487;48.626;12.486;2023-05-10T03:23:46;8.90;;;6.70;;
12840;SDS011;6487;48.626;12.486;2023-05-10T03:26:20;7.17;;;6.47;;
12840;SDS011;6487;48.626;12.486;2023-05-10T03:28:54;6.53;;;6.03;;
12840;SDS011;6487;48.626;12.486;2023-05-10T03:31:26;7.87;;;6.90;;
12840;SDS011;6487;48.626;12.486;2023-05-10T03:33:55;6.80;;;6.17;;
12840;SDS011;6487;48.626;12.486;2023-05-10T03:36:27;7.03;;;6.20;;
12840;SDS011;6487;48.626;12.486;2023-05-10T03:38:55;7.03;;;6.33;;
12840;SDS011;6487;48.626;12.486;2023-05-10T03:41:24;7.93;;;7.13;;
12840;SDS011;6487;48.626;12.486;2023-05-10T03:43:53;6.53;;;5.93;;
12840;SDS011;6487;48.626;12.486;2023-05-10T03:46:21;7.60;;;6.80;;
12840;SDS011;6487;48.626;12.486;2023-05-10T03:48:49;7.87;;;7.20;;
12840;SDS011;6487;48.626;12.486;2023-05-10T03:51:18;7.30;;;6.70;;
12840;SDS011;6487;48.626;12.486;2023-05-10T03:53:48;7.77;;;7.07;;
12840;SDS011;6487;48.626;12.486;2023-05-10T03:56:19;7.93;;;7.23;;
12840;SDS011;6487;48.626;12.486;2023-05-10T03:58:47;7.80;;;7.00;;
12840;SDS011;6487;48.626;12.486;2023-05-10T04:01:15;8.17;;;7.37;;
12840;SDS011;6487;48.626;12.486;2023-05-10T04:03:44;7.67;;;6.97;;
12840;SDS011;6487;48.626;12.486;2023-05-10T04:06:12;7.87;;;7.17;;
12840;SDS011;6487;48.626;12.486;2023-05-10T04:08:41;8.13;;;7.40;;
12840;SDS011;6487;48.626;12.486;2023-05-10T04:11:11;7.90;;;7.10;;
12840;SDS011;6487;48.626;12.486;2023-05-10T04:13:43;9.17;;;7.07;;
12840;SDS011;6487;48.626;12.486;2023-05-10T04:16:11;7.70;;;7.00;;
12840;SDS011;6487;48.626;12.486;2023-05-10T04:18:39;7.10;;;6.60;;
12840;SDS011;6487;48.626;12.486;2023-05-10T04:21:11;7.60;;;6.90;;
12840;SDS011;6487;48.626;12.486;2023-05-10T04:23:39;7.63;;;6.93;;
12840;SDS011;6487;48.626;12.486;2023-05-10T04:26:08;7.40;;;6.27;;
12840;SDS011;6487;48.626;12.486;2023-05-10T04:28:38;7.07;;;6.47;;
12840;SDS011;6487;48.626;12.486;2023-05-10T04:31:07;7.70;;;7.00;;
12840;SDS011;6487;48.626;12.486;2023-05-10T04:33:36;8.33;;;7.47;;
12840;SDS011;6487;48.626;12.486;2023-05-10T04:36:05;7.97;;;7.17;;
12840;SDS011;6487;48.626;12.486;2023-05-10T04:38:34;8.50;;;7.70;;
12840;SDS011;6487;48.626;12.486;2023-05-10T04:41:05;9.20;;;8.23;;
12840;SDS011;6487;48.626;12.486;2023-05-10T04:43:36;12.63;;;11.47;;
12840;SDS011;6487;48.626;12.486;2023-05-10T04:46:05;14.17;;;11.20;;
12840;SDS011;6487;48.626;12.486;2023-05-10T04:48:36;14.73;;;13.33;;
12840;SDS011;6487;48.626;12.486;2023-05-10T04:51:07;11.70;;;10.63;;
12840;SDS011;6487;48.626;12.486;2023-05-10T04:53:36;7.87;;;7.23;;
12840;SDS011;6487;48.626;12.486;2023-05-10T04:56:04;8.93;;;7.77;;
12840;SDS011;6487;48.626;12.486;2023-05-10T04:58:33;7.57;;;6.87;;
12840;SDS011;6487;48.626;12.486;2023-05-10T05:01:06;6.50;;;5.90;;
12840;SDS011;6487;48.626;12.486;2023-05-10T05:03:35;6.77;;;5.90;;
12840;SDS011;6487;48.626;12.486;2023-05-10T05:06:05;6.60;;;6.00;;
12840;SDS011;6487;48.626;12.486;2023-05-10T05:08:33;6.07;;;5.57;;
12840;SDS011;6487;48.626;12.486;2023-05-10T05:11:02;5.57;;;5.10;;
12840;SDS011;6487;48.626;12.486;2023-05-10T05:13:30;6.60;;;6.03;;
12840;SDS011;6487;48.626;12.486;2023-05-10T05:16:00;5.37;;;4.87;;
12840;SDS011;6487;48.626;12.486;2023-05-10T05:18:30;6.03;;;5.53;;
12840;SDS011;6487;48.626;12.486;2023-05-10T05:20:58;5.70;;;5.30;;
12840;SDS011;6487;48.626;12.486;2023-05-10T05:23:27;4.93;;;4.53;;
12840;SDS011;6487;48.626;12.486;2023-05-10T05:25:55;5.13;;;4.63;;
12840;SDS011;6487;48.626;12.486;2023-05-10T05:28:26;3.50;;;3.20;;
12840;SDS011;6487;48.626;12.486;2023-05-10T05:30:59;4.13;;;3.40;;
12840;SDS011;6487;48.626;12.486;2023-05-10T05:33:27;5.13;;;3.10;;
12840;SDS011;6487;48.626;12.486;2023-05-10T05:35:57;3.03;;;2.73;;
12840;SDS011;6487;48.626;12.486;2023-05-10T05:38:28;3.40;;;2.27;;
12840;SDS011;6487;48.626;12.486;2023-05-10T05:40:56;1.87;;;1.77;;
12840;SDS011;6487;48.626;12.486;2023-05-10T05:43:25;1.77;;;1.67;;
12840;SDS011;6487;48.626;12.486;2023-05-10T05:45:53;1.40;;;1.30;;
12840;SDS011;6487;48.626;12.486;2023-05-10T05:48:24;1.30;;;1.20;;
12840;SDS011;6487;48.626;12.486;2023-05-10T05:50:56;1.50;;;1.40;;
12840;SDS011;6487;48.626;12.486;2023-05-10T05:53:25;2.03;;;1.20;;
12840;SDS011;6487;48.626;12.486;2023-05-10T05:55:54;1.50;;;1.17;;
12840;SDS011;6487;48.626;12.486;2023-05-10T05:58:25;1.53;;;1.13;;
12840;SDS011;6487;48.626;12.486;2023-05-10T06:00:54;3.17;;;1.33;;
12840;SDS011;6487;48.626;12.486;2023-05-10T06:03:23;1.70;;;1.10;;
12840;SDS011;6487;48.626;12.486;2023-05-10T06:05:51;1.57;;;1.23;;
12840;SDS011;6487;48.626;12.486;2023-05-10T06:08:21;1.13;;;1.03;;
12840;SDS011;6487;48.626;12.486;2023-05-10T06:10:49;1.93;;;1.17;;
12840;SDS011;6487;48.626;12.486;2023-05-10T06:13:18;1.47;;;1.10;;
12840;SDS011;6487;48.626;12.486;2023-05-10T06:15:46;0.93;;;0.90;;
12840;SDS011;6487;48.626;12.486;2023-05-10T06:18:14;1.27;;;1.10;;
12840;SDS011;6487;48.626;12.486;2023-05-10T06:20:43;0.90;;;0.90;;
12840;SDS011;6487;48.626;12.486;2023-05-10T06:23:11;1.20;;;1.00;;
12840;SDS011;6487;48.626;12.486;2023-05-10T06:25:41;0.97;;;0.90;;
12840;SDS011;6487;48.626;12.486;2023-05-10T06:28:09;1.00;;;0.90;;
12840;SDS011;6487;48.626;12.486;2023-05-10T06:30:37;1.20;;;1.10;;
12840;SDS011;6487;48.626;12.486;2023-05-10T06:33:06;1.03;;;0.90;;
12840;SDS011;6487;48.626;12.486;2023-05-10T06:35:34;1.57;;;1.00;;
12840;SDS011;6487;48.626;12.486;2023-05-10T06:38:03;1.23;;;1.07;;
12840;SDS011;6487;48.626;12.486;2023-05-10T06:40:31;1.23;;;0.83;;
12840;SDS011;6487;48.626;12.486;2023-05-10T06:43:01;1.20;;;1.00;;
12840;SDS011;6487;48.626;12.486;2023-05-10T06:45:29;1.50;;;1.10;;
12840;SDS011;6487;48.626;12.486;2023-05-10T06:48:03;1.20;;;1.10;;
12840;SDS011;6487;48.626;12.486;2023-05-10T06:50:32;0.80;;;0.80;;
12840;SDS011;6487;48.626;12.486;2023-05-10T06:53:01;1.87;;;1.00;;
12840;SDS011;6487;48.626;12.486;2023-05-10T06:55:30;2.30;;;0.90;;
12840;SDS011;6487;48.626;12.486;2023-05-10T06:57:58;3.73;;;1.10;;
12840;SDS011;6487;48.626;12.486;2023-05-10T07:00:28;1.43;;;1.13;;
12840;SDS011;6487;48.626;12.486;2023-05-10T07:02:56;1.23;;;1.10;;
12840;SDS011;6487;48.626;12.486;2023-05-10T07:05:24;2.10;;;1.27;;
12840;SDS011;6487;48.626;12.486;2023-05-10T07:07:54;2.53;;;1.00;;
12840;SDS011;6487;48.626;12.486;2023-05-10T07:10:22;1.30;;;1.20;;
12840;SDS011;6487;48.626;12.486;2023-05-10T07:12:51;2.00;;;1.50;;
12840;SDS011;6487;48.626;12.486;2023-05-10T07:15:19;1.60;;;1.50;;
12840;SDS011;6487;48.626;12.486;2023-05-10T07:17:49;1.70;;;1.60;;
12840;SDS011;6487;48.626;12.486;2023-05-10T07:20:19;2.70;;;1.60;;
12840;SDS011;6487;48.626;12.486;2023-05-10T07:22:47;1.50;;;1.40;;
12840;SDS011;6487;48.626;12.486;2023-05-10T07:25:15;3.13;;;1.43;;
12840;SDS011;6487;48.626;12.486;2023-05-10T07:27:47;1.50;;;1.40;;
12840;SDS011;6487;48.626;12.486;2023-05-10T07:30:15;2.30;;;1.53;;
12840;SDS011;6487;48.626;12.486;2023-05-10T07:32:44;4.30;;;1.70;;
12840;SDS011;6487;48.626;12.486;2023-05-10T07:35:14;1.50;;;1.40;;
12840;SDS011;6487;48.626;12.486;2023-05-10T07:37:42;1.53;;;1.33;;
12840;SDS011;6487;48.626;12.486;2023-05-10T07:40:11;1.40;;;1.30;;
12840;SDS011;6487;48.626;12.486;2023-05-10T07:42:39;1.77;;;1.47;;
12840;SDS011;6487;48.626;12.486;2023-05-10T07:45:08;2.67;;;1.90;;
12840;SDS011;6487;48.626;12.486;2023-05-10T07:47:37;1.57;;;1.47;;
12840;SDS011;6487;48.626;12.486;2023-05-10T07:50:06;1.60;;;1.50;;
12840;SDS011;6487;48.626;12.486;2023-05-10T07:52:36;2.63;;;1.77;;
12840;SDS011;6487;48.626;12.486;2023-05-10T07:55:05;2.20;;;2.00;;
12840;SDS011;6487;48.626;12.486;2023-05-10T07:57:35;2.87;;;1.73;;
12840;SDS011;6487;48.626;12.486;2023-05-10T08:00:04;2.20;;;2.10;;
12840;SDS011;6487;48.626;12.486;2023-05-10T08:02:40;2.40;;;2.20;;
12840;SDS011;6487;48.626;12.486;2023-05-10T08:05:09;1.27;;;1.17;;
12840;SDS011;6487;48.626;12.486;2023-05-10T08:07:39;3.37;;;1.10;;
12840;SDS011;6487;48.626;12.486;2023-05-10T08:10:08;1.23;;;0.90;;
12840;SDS011;6487;48.626;12.486;2023-05-10T08:12:38;1.37;;;0.90;;
12840;SDS011;6487;48.626;12.486;2023-05-10T08:15:07;1.20;;;1.10;;
12840;SDS011;6487;48.626;12.486;2023-05-10T08:17:37;1.00;;;0.83;;
12840;SDS011;6487;48.626;12.486;2023-05-10T08:20:06;1.00;;;0.70;;
12840;SDS011;6487;48.626;12.486;2023-05-10T08:22:40;1.50;;;0.87;;
12840;SDS011;6487;48.626;12.486;2023-05-10T08:25:08;2.23;;;0.87;;
12840;SDS011;6487;48.626;12.486;2023-05-10T08:27:37;3.70;;;1.20;;
12840;SDS011;6487;48.626;12.486;2023-05-10T08:30:06;2.20;;;0.90;;
12840;SDS011;6487;48.626;12.486;2023-05-10T08:32:36;1.43;;;0.80;;
12840;SDS011;6487;48.626;12.486;2023-05-10T08:35:05;1.10;;;1.00;;
12840;SDS011;6487;48.626;12.486;2023-05-10T08:37:34;2.13;;;1.10;;
12840;SDS011;6487;48.626;12.486;2023-05-10T08:40:04;1.20;;;0.80;;
12840;SDS011;6487;48.626;12.486;2023-05-10T08:42:34;1.57;;;0.90;;
12840;SDS011;6487;48.626;12.486;2023-05-10T08:45:08;1.43;;;0.90;;
12840;SDS011;6487;48.626;12.486;2023-05-10T08:47:38;1.40;;;0.80;;
12840;SDS011;6487;48.626;12.486;2023-05-10T08:50:07;3.17;;;0.80;;
12840;SDS011;6487;48.626;12.486;2023-05-10T08:52:38;1.20;;;1.10;;
12840;SDS011;6487;48.626;12.486;2023-05-10T08:55:09;2.93;;;1.10;;
12840;SDS011;6487;48.626;12.486;2023-05-10T08:57:37;1.07;;;0.80;;
12840;SDS011;6487;48.626;12.486;2023-05-10T09:00:06;1.20;;;1.10;;
12840;SDS011;6487;48.626;12.486;2023-05-10T09:02:36;1.23;;;1.00;;
12840;SDS011;6487;48.626;12.486;2023-05-10T09:05:05;1.47;;;0.93;;
12840;SDS011;6487;48.626;12.486;2023-05-10T09:07:38;1.73;;;0.90;;
12840;SDS011;6487;48.626;12.486;2023-05-10T09:10:06;1.03;;;0.90;;
12840;SDS011;6487;48.626;12.486;2023-05-10T09:12:38;1.20;;;1.20;;
12840;SDS011;6487;48.626;12.486;2023-05-10T09:15:13;1.47;;;1.37;;
12840;SDS011;6487;48.626;12.486;2023-05-10T09:17:45;1.60;;;1.40;;
12840;SDS011;6487;48.626;12.486;2023-05-10T09:20:14;1.70;;;1.60;;
12840;SDS011;6487;48.626;12.486;2023-05-10T09:22:46;1.80;;;1.70;;
12840;SDS011;6487;48.626;12.486;2023-05-10T09:25:16;2.30;;;2.10;;
12840;SDS011;6487;48.626;12.486;2023-05-10T09:27:46;2.93;;;2.73;;
12840;SDS011;6487;48.626;12.486;2023-05-10T09:30:15;2.90;;;2.70;;
12840;SDS011;6487;48.626;12.486;2023-05-10T09:32:45;4.23;;;2.57;;
12840;SDS011;6487;48.626;12.486;2023-05-10T09:35:15;2.20;;;2.10;;
12840;SDS011;6487;48.626;12.486;2023-05-10T09:37:46;2.67;;;2.47;;
12840;SDS011;6487;48.626;12.486;2023-05-10T09:40:17;2.80;;;2.60;;
12840;SDS011;6487;48.626;12.486;2023-05-10T09:42:51;2.73;;;2.63;;
12840;SDS011;6487;48.626;12.486;2023-05-10T09:45:24;2.47;;;2.37;;
12840;SDS011;6487;48.626;12.486;2023-05-10T09:47:54;1.80;;;1.70;;
12840;SDS011;6487;48.626;12.486;2023-05-10T09:50:23;2.10;;;2.00;;
12840;SDS011;6487;48.626;12.486;2023-05-10T09:52:52;2.57;;;1.80;;
12840;SDS011;6487;48.626;12.486;2023-05-10T09:55:26;1.40;;;1.30;;
12840;SDS011;6487;48.626;12.486;2023-05-10T09:58:07;1.50;;;1.40;;
12840;SDS011;6487;48.626;12.486;2023-05-10T10:00:37;3.70;;;1.00;;
12840;SDS011;6487;48.626;12.486;2023-05-10T10:03:11;1.17;;;1.17;;
12840;SDS011;6487;48.626;12.486;2023-05-10T10:05:42;1.53;;;1.40;;
12840;SDS011;6487;48.626;12.486;2023-05-10T10:08:11;0.97;;;0.90;;
12840;SDS011;6487;48.626;12.486;2023-05-10T10:10:41;1.47;;;1.37;;
12840;SDS011;6487;48.626;12.486;2023-05-10T10:13:12;0.53;;;0.53;;
12840;SDS011;6487;48.626;12.486;2023-05-10T10:15:41;1.20;;;1.00;;
12840;SDS011;6487;48.626;12.486;2023-05-10T10:18:12;0.93;;;0.93;;
12840;SDS011;6487;48.626;12.486;2023-05-10T10:20:41;0.63;;;0.63;;
12840;SDS011;6487;48.626;12.486;2023-05-10T10:23:10;0.80;;;0.70;;
12840;SDS011;6487;48.626;12.486;2023-05-10T10:25:44;0.77;;;0.77;;
12840;SDS011;6487;48.626;12.486;2023-05-10T10:28:16;0.80;;;0.70;;
12840;SDS011;6487;48.626;12.486;2023-05-10T10:30:54;1.30;;;0.93;;
12840;SDS011;6487;48.626;12.486;2023-05-10T10:36:24;0.60;;;0.60;;
12840;SDS011;6487;48.626;12.486;2023-05-10T10:38:57;1.50;;;0.63;;
12840;SDS011;6487;48.626;12.486;2023-05-10T10:41:29;0.73;;;0.73;;
12840;SDS011;6487;48.626;12.486;2023-05-10T10:47:05;1.23;;;1.13;;
12840;SDS011;6487;48.626;12.486;2023-05-10T10:49:43;1.37;;;1.03;;
12840;SDS011;6487;48.626;12.486;2023-05-10T10:52:24;1.20;;;1.10;;
12840;SDS011;6487;48.626;12.486;2023-05-10T10:55:00;1.10;;;0.83;;
12840;SDS011;6487;48.626;12.486;2023-05-10T10:57:33;0.70;;;0.70;;
12840;SDS011;6487;48.626;12.486;2023-05-10T11:00:18;0.40;;;0.40;;
12840;SDS011;6487;48.626;12.486;2023-05-10T11:02:52;0.53;;;0.47;;
12840;SDS011;6487;48.626;12.486;2023-05-10T11:05:34;1.53;;;0.50;;
12840;SDS011;6487;48.626;12.486;2023-05-10T11:08:12;0.50;;;0.50;;
12840;SDS011;6487;48.626;12.486;2023-05-10T11:10:52;1.17;;;0.70;;
12840;SDS011;6487;48.626;12.486;2023-05-10T11:13:32;3.70;;;0.70;;
12840;SDS011;6487;48.626;12.486;2023-05-10T11:16:10;1.70;;;0.63;;
12840;SDS011;6487;48.626;12.486;2023-05-10T11:18:40;1.10;;;1.00;;
12840;SDS011;6487;48.626;12.486;2023-05-10T11:21:20;1.00;;;0.90;;
12840;SDS011;6487;48.626;12.486;2023-05-10T11:23:50;0.70;;;0.70;;
12840;SDS011;6487;48.626;12.486;2023-05-10T11:26:22;1.23;;;0.90;;
12840;SDS011;6487;48.626;12.486;2023-05-10T11:29:03;1.03;;;0.70;;
12840;SDS011;6487;48.626;12.486;2023-05-10T11:31:31;0.70;;;0.70;;
12840;SDS011;6487;48.626;12.486;2023-05-10T11:34:00;1.20;;;0.83;;
12840;SDS011;6487;48.626;12.486;2023-05-10T11:36:31;1.07;;;0.90;;
12840;SDS011;6487;48.626;12.486;2023-05-10T11:39:03;0.80;;;0.80;;
12840;SDS011;6487;48.626;12.486;2023-05-10T11:41:31;0.73;;;0.73;;
12840;SDS011;6487;48.626;12.486;2023-05-10T11:44:00;1.33;;;0.80;;
12840;SDS011;6487;48.626;12.486;2023-05-10T11:46:31;0.80;;;0.80;;
12840;SDS011;6487;48.626;12.486;2023-05-10T11:49:01;0.80;;;0.80;;
12840;SDS011;6487;48.626;12.486;2023-05-10T11:51:33;2.20;;;0.73;;
12840;SDS011;6487;48.626;12.486;2023-05-10T11:54:05;1.67;;;1.00;;
12840;SDS011;6487;48.626;12.486;2023-05-10T11:56:35;0.90;;;0.90;;
12840;SDS011;6487;48.626;12.486;2023-05-10T11:59:06;1.17;;;1.07;;
12840;SDS011;6487;48.626;12.486;2023-05-10T12:01:35;1.93;;;1.13;;
12840;SDS011;6487;48.626;12.486;2023-05-10T12:07:00;1.77;;;1.00;;
12840;SDS011;6487;48.626;12.486;2023-05-10T12:09:28;1.47;;;1.07;;
12840;SDS011;6487;48.626;12.486;2023-05-10T12:12:08;4.57;;;1.13;;
12840;SDS011;6487;48.626;12.486;2023-05-10T12:14:38;1.20;;;1.00;;
12840;SDS011;6487;48.626;12.486;2023-05-10T12:17:11;1.47;;;1.20;;
12840;SDS011;6487;48.626;12.486;2023-05-10T12:19:39;2.77;;;1.60;;
12840;SDS011;6487;48.626;12.486;2023-05-10T12:22:10;1.40;;;1.30;;
12840;SDS011;6487;48.626;12.486;2023-05-10T12:24:38;2.60;;;1.50;;
12840;SDS011;6487;48.626;12.486;2023-05-10T12:27:07;1.50;;;1.40;;
12840;SDS011;6487;48.626;12.486;2023-05-10T12:29:36;1.37;;;1.27;;
12840;SDS011;6487;48.626;12.486;2023-05-10T12:32:11;3.10;;;1.57;;
12840;SDS011;6487;48.626;12.486;2023-05-10T12:34:42;2.10;;;1.70;;
12840;SDS011;6487;48.626;12.486;2023-05-10T12:37:14;1.60;;;1.50;;
12840;SDS011;6487;48.626;12.486;2023-05-10T12:39:43;1.83;;;1.33;;
12840;SDS011;6487;48.626;12.486;2023-05-10T12:42:12;1.30;;;1.20;;
12840;SDS011;6487;48.626;12.486;2023-05-10T12:44:41;1.77;;;1.33;;
12840;SDS011;6487;48.626;12.486;2023-05-10T12:47:10;3.03;;;1.53;;
12840;SDS011;6487;48.626;12.486;2023-05-10T12:49:39;2.87;;;1.80;;
12840;SDS011;6487;48.626;12.486;2023-05-10T12:52:07;1.60;;;1.47;;
12840;SDS011;6487;48.626;12.486;2023-05-10T12:54:35;1.50;;;1.40;;
12840;SDS011;6487;48.626;12.486;2023-05-10T12:57:04;1.50;;;1.40;;
12840;SDS011;6487;48.626;12.486;2023-05-10T12:59:32;1.50;;;1.40;;
12840;SDS011;6487;48.626;12.486;2023-05-10T13:02:05;2.37;;;1.70;;
12840;SDS011;6487;48.626;12.486;2023-05-10T13:04:34;1.90;;;1.80;;
12840;SDS011;6487;48.626;12.486;2023-05-10T13:07:03;1.90;;;1.80;;
12840;SDS011;6487;48.626;12.486;2023-05-10T13:09:32;2.10;;;1.90;;
12840;SDS011;6487;48.626;12.486;2023-05-10T13:12:00;2.33;;;1.83;;
12840;SDS011;6487;48.626;12.486;2023-05-10T13:14:29;1.73;;;1.63;;
12840;SDS011;6487;48.626;12.486;2023-05-10T13:17:02;1.90;;;1.80;;
12840;SDS011;6487;48.626;12.486;2023-05-10T13:19:32;1.90;;;1.80;;
12840;SDS011;6487;48.626;12.486;2023-05-10T13:22:00;1.97;;;1.40;;
12840;SDS011;6487;48.626;12.486;2023-05-10T13:24:29;1.70;;;1.60;;
12840;SDS011;6487;48.626;12.486;2023-05-10T13:26:57;2.77;;;2.00;;
12840;SDS011;6487;48.626;12.486;2023-05-10T13:29:26;2.13;;;1.70;;
12840;SDS011;6487;48.626;12.486;2023-05-10T13:31:54;1.90;;;1.80;;
12840;SDS011;6487;48.626;12.486;2023-05-10T13:34:23;1.43;;;1.33;;
12840;SDS011;6487;48.626;12.486;2023-05-10T13:36:52;1.73;;;1.50;;
12840;SDS011;6487;48.626;12.486;2023-05-10T13:39:29;1.67;;;1.57;;
12840;SDS011;6487;48.626;12.486;2023-05-10T13:42:00;1.77;;;1.67;;
12840;SDS011;6487;48.626;12.486;2023-05-10T13:44:29;3.23;;;2.00;;
12840;SDS011;6487;48.626;12.486;2023-05-10T13:46:59;2.07;;;1.97;;
12840;SDS011;6487;48.626;12.486;2023-05-10T13:49:28;1.50;;;1.40;;
12840;SDS011;6487;48.626;12.486;2023-05-10T13:51:57;1.70;;;1.50;;
12840;SDS011;6487;48.626;12.486;2023-05-10T13:54:29;1.47;;;1.30;;
12840;SDS011;6487;48.626;12.486;2023-05-10T13:56:58;2.70;;;2.50;;
12840;SDS011;6487;48.626;12.486;2023-05-10T13:59:26;2.93;;;2.67;;
12840;SDS011;6487;48.626;12.486;2023-05-10T14:01:57;2.27;;;2.07;;
12840;SDS011;6487;48.626;12.486;2023-05-10T14:04:26;2.57;;;2.37;;
12840;SDS011;6487;48.626;12.486;2023-05-10T14:06:55;2.60;;;2.40;;
12840;SDS011;6487;48.626;12.486;2023-05-10T14:09:25;2.43;;;2.23;;
12840;SDS011;6487;48.626;12.486;2023-05-10T14:11:53;2.50;;;2.30;;
12840;SDS011;6487;48.626;12.486;2023-05-10T14:14:22;3.07;;;2.23;;
12840;SDS011;6487;48.626;12.486;2023-05-10T14:16:50;3.67;;;2.27;;
12840;SDS011;6487;48.626;12.486;2023-05-10T14:19:18;2.70;;;2.33;;
12840;SDS011;6487;48.626;12.486;2023-05-10T14:21:49;2.53;;;2.20;;
12840;SDS011;6487;48.626;12.486;2023-05-10T14:24:18;1.83;;;1.73;;
12840;SDS011;6487;48.626;12.486;2023-05-10T14:26:48;2.53;;;2.20;;
12840;SDS011;6487;48.626;12.486;2023-05-10T14:29:19;2.10;;;1.80;;
12840;SDS011;6487;48.626;12.486;2023-05-10T14:31:48;2.50;;;1.90;;
12840;SDS011;6487;48.626;12.486;2023-05-10T14:34:17;1.47;;;1.23;;
12840;SDS011;6487;48.626;12.486;2023-05-10T14:36:46;1.83;;;1.47;;
12840;SDS011;6487;48.626;12.486;2023-05-10T14:39:14;1.30;;;1.20;;
12840;SDS011;6487;48.626;12.486;2023-05-10T14:41:42;3.10;;;1.20;;
12840;SDS011;6487;48.626;12.486;2023-05-10T14:44:13;1.80;;;1.50;;
12840;SDS011;6487;48.626;12.486;2023-05-10T14:46:42;2.63;;;1.50;;
12840;SDS011;6487;48.626;12.486;2023-05-10T14:49:10;3.47;;;1.40;;
12840;SDS011;6487;48.626;12.486;2023-05-10T14:51:39;3.00;;;1.60;;
12840;SDS011;6487;48.626;12.486;2023-05-10T14:54:07;2.27;;;1.40;;
12840;SDS011;6487;48.626;12.486;2023-05-10T14:56:36;3.47;;;1.80;;
12840;SDS011;6487;48.626;12.486;2023-05-10T14:59:04;4.87;;;1.70;;
12840;SDS011;6487;48.626;12.486;2023-05-10T15:01:34;13.37;;;2.30;;
12840;SDS011;6487;48.626;12.486;2023-05-10T15:04:04;6.43;;;2.13;;
12840;SDS011;6487;48.626;12.486;2023-05-10T15:06:33;3.60;;;2.27;;
12840;SDS011;6487;48.626;12.486;2023-05-10T15:09:03;3.33;;;2.20;;
12840;SDS011;6487;48.626;12.486;2023-05-10T15:11:31;3.20;;;1.80;;
12840;SDS011;6487;48.626;12.486;2023-05-10T15:14:00;1.37;;;1.27;;
12840;SDS011;6487;48.626;12.486;2023-05-10T15:16:29;2.77;;;1.70;;
12840;SDS011;6487;48.626;12.486;2023-05-10T15:19:02;5.80;;;1.50;;
12840;SDS011;6487;48.626;12.486;2023-05-10T15:21:31;1.93;;;1.20;;